Maxatawny, Pennsylvania
Current Conditions -  °F | °C
As of 5:55 PM on Tuesday 27 Jan 2015 (Local Time) from KXLL Reporting Station
Clear Clear  
Wind Chill: -7°   Ceiling: Unl
Heat Index: -2°   Visibility: 10mi
Dew Point: -13°   Wind: 10mph
Humidity: 43%   Direction: 330°NNW
Pressure: 29.78"   Gusts: NA
Location:  40.54°N, 75.69°W
Report Text: KXLL 272255Z AUTO 33009KT 10SM CLR M02/M13 A2978 RMK AO2
Loading
Personal Weather Stations






























Interactive Weather Map New forecast layout! Learn more

10-Day Weather Forecast

Advertisements
Track Severe Weather on mobile